createdAt,value
2019-02-08T00:01:33.634Z,68.20
2019-02-08T00:04:14.829Z,69.67
2019-02-08T00:06:55.840Z,86.50
2019-02-08T00:09:36.573Z,72.20
2019-02-08T00:12:19.674Z,69.47
2019-02-08T00:15:00.297Z,65.07
2019-02-08T00:17:41.117Z,69.17
2019-02-08T00:20:22.036Z,70.97
2019-02-08T00:23:02.554Z,77.00
2019-02-08T00:25:43.734Z,67.93
2019-02-08T00:28:24.280Z,74.17
2019-02-08T00:31:05.582Z,74.67
2019-02-08T00:33:46.463Z,68.83
2019-02-08T00:36:26.921Z,73.73
2019-02-08T00:39:07.547Z,71.83
2019-02-08T00:41:48.086Z,71.00
2019-02-08T00:44:28.938Z,66.33
2019-02-08T00:47:09.658Z,72.47
2019-02-08T00:49:50.154Z,70.37
2019-02-08T00:52:30.702Z,76.20
2019-02-08T00:55:11.601Z,64.00
2019-02-08T00:57:52.209Z,79.80
2019-02-08T01:00:33.132Z,76.67
2019-02-08T01:03:14.180Z,178.13
2019-02-08T01:05:55.022Z,74.70
2019-02-08T01:08:35.809Z,115.37
2019-02-08T01:11:16.651Z,377.03
2019-02-08T01:13:57.436Z,141.67
2019-02-08T01:16:38.316Z,283.57
2019-02-08T01:19:19.005Z,82.43
2019-02-08T01:21:59.887Z,118.77
2019-02-08T01:24:40.612Z,71.47
2019-02-08T01:27:21.239Z,66.13
2019-02-08T01:30:02.054Z,72.33
2019-02-08T01:32:42.764Z,73.57
2019-02-08T01:35:24.077Z,98.63
2019-02-08T01:38:04.945Z,67.67
2019-02-08T01:40:45.869Z,63.73
2019-02-08T01:43:25.525Z,63.13
2019-02-08T01:46:13.673Z,72.17
2019-02-08T01:49:01.797Z,66.73
2019-02-08T01:51:49.844Z,69.27
2019-02-08T01:54:37.896Z,66.57
2019-02-08T01:57:25.958Z,65.40
2019-02-08T02:00:33.217Z,65.00
2019-02-08T02:03:21.353Z,78.10
2019-02-08T02:06:09.761Z,59.70
2019-02-08T02:08:57.825Z,72.23
2019-02-08T02:11:46.193Z,56.57
2019-02-08T02:14:34.429Z,64.63
2019-02-08T02:17:22.789Z,59.70
2019-02-08T02:20:11.273Z,56.70
2019-02-08T02:22:59.404Z,64.97
2019-02-08T02:25:47.541Z,61.77
2019-02-08T02:28:35.686Z,53.07
2019-02-08T02:31:24.038Z,47.60
2019-02-08T02:34:12.168Z,56.33
2019-02-08T02:40:05.514Z,116.60
2019-02-08T02:42:46.370Z,49.97
2019-02-08T02:45:27.430Z,57.43
2019-02-08T02:48:07.996Z,54.93
2019-02-08T02:50:48.674Z,64.27
2019-02-08T02:53:29.801Z,59.03
2019-02-08T02:56:10.917Z,55.33
2019-02-08T02:58:54.542Z,54.43
2019-02-08T03:04:17.509Z,172.93
2019-02-08T03:06:58.133Z,535.60
2019-02-08T03:09:39.376Z,142.07
2019-02-08T03:12:19.946Z,94.90
2019-02-08T03:15:00.329Z,49.47
2019-02-08T03:17:41.238Z,252.70
2019-02-08T03:20:22.499Z,175.53
2019-02-08T03:23:03.160Z,366.77
2019-02-08T03:25:43.909Z,194.37
2019-02-08T03:28:24.498Z,70.80
2019-02-08T03:31:05.107Z,298.67
2019-02-08T03:33:45.925Z,44.37
2019-02-08T03:36:27.015Z,56.57
2019-02-08T03:39:07.429Z,69.37
2019-02-08T03:41:48.415Z,59.13
2019-02-08T03:44:29.079Z,75.50
2019-02-08T03:47:09.636Z,59.30
2019-02-08T03:49:50.641Z,56.33
2019-02-08T03:52:31.529Z,57.27
2019-02-08T03:55:12.338Z,65.90
2019-02-08T03:57:53.029Z,65.07
2019-02-08T04:00:41.841Z,67.00
2019-02-08T04:03:22.572Z,60.53
2019-02-08T04:06:03.569Z,56.07
2019-02-08T04:11:30.049Z,65.27
2019-02-08T04:14:10.660Z,73.77
2019-02-08T04:16:51.517Z,75.87
2019-02-08T04:19:32.406Z,73.70
2019-02-08T04:22:13.169Z,68.30
2019-02-08T04:24:53.869Z,62.27
2019-02-08T04:27:34.655Z,60.30
2019-02-08T04:30:15.182Z,61.53
2019-02-08T04:32:55.852Z,62.87
2019-02-08T04:35:36.585Z,68.73
2019-02-08T04:38:18.480Z,70.40
2019-02-08T04:40:59.774Z,65.70
2019-02-08T04:43:40.320Z,68.30
2019-02-08T04:46:21.023Z,78.70
2019-02-08T04:49:01.728Z,66.83
2019-02-08T04:51:42.332Z,81.83
2019-02-08T04:54:23.237Z,70.03
2019-02-08T04:57:03.705Z,72.57
2019-02-08T04:59:44.285Z,71.03
2019-02-08T05:02:25.138Z,82.33
2019-02-08T05:05:05.495Z,76.10
2019-02-08T05:07:46.723Z,92.10
2019-02-08T05:10:28.042Z,87.43
2019-02-08T05:13:08.511Z,87.03
2019-02-08T05:15:49.143Z,95.73
2019-02-08T05:18:29.878Z,89.17
2019-02-08T05:21:10.441Z,101.07
2019-02-08T05:23:51.182Z,103.07
2019-02-08T05:26:31.994Z,93.77
2019-02-08T05:29:12.685Z,102.90
2019-02-08T05:31:53.593Z,109.67
2019-02-08T05:34:33.948Z,99.20
2019-02-08T05:37:14.685Z,82.50
2019-02-08T05:39:55.310Z,70.07
2019-02-08T05:42:36.094Z,68.73
2019-02-08T05:45:17.175Z,81.90
2019-02-08T05:47:57.733Z,75.03
2019-02-08T05:50:38.425Z,73.33
2019-02-08T05:53:19.522Z,82.00
2019-02-08T05:56:00.037Z,82.73
2019-02-08T05:58:40.773Z,63.13
2019-02-08T06:01:21.527Z,73.80
2019-02-08T06:06:51.251Z,82.07
2019-02-08T06:12:14.376Z,70.00
2019-02-08T06:14:55.657Z,66.97
2019-02-08T06:17:36.460Z,59.43
2019-02-08T06:20:16.957Z,50.80
2019-02-08T06:22:57.668Z,57.20
2019-02-08T06:28:17.325Z,66.67
2019-02-08T06:30:57.950Z,55.50
2019-02-08T06:33:38.630Z,64.30
2019-02-08T06:39:08.686Z,68.63
2019-02-08T06:41:49.370Z,70.43
2019-02-08T06:44:29.785Z,61.10
2019-02-08T06:47:10.686Z,54.00
2019-02-08T06:49:51.446Z,54.50
2019-02-08T06:52:32.046Z,52.67
2019-02-08T06:55:12.750Z,53.53
2019-02-08T06:58:15.434Z,74.10
2019-02-08T07:04:21.545Z,48.67
2019-02-08T07:07:24.862Z,44.77
2019-02-08T07:10:24.366Z,48.03
2019-02-08T07:13:12.538Z,42.23
2019-02-08T07:16:06.933Z,56.80
2019-02-08T07:19:00.404Z,60.60
2019-02-08T07:21:56.956Z,50.30
2019-02-08T07:25:04.121Z,41.67
2019-02-08T07:28:11.297Z,39.90
2019-02-08T07:30:59.928Z,46.03
2019-02-08T07:33:55.017Z,42.20
2019-02-08T07:36:45.074Z,47.30
2019-02-08T07:39:39.801Z,40.60
2019-02-08T07:42:37.137Z,38.80
2019-02-08T07:45:34.906Z,35.80
2019-02-08T07:48:31.454Z,32.17
2019-02-08T08:00:31.221Z,29.40
2019-02-08T08:06:15.382Z,27.87
2019-02-08T08:09:18.221Z,27.77
2019-02-08T08:12:09.881Z,23.40
2019-02-08T08:15:12.791Z,26.17
2019-02-08T08:18:15.388Z,21.83
2019-02-08T08:21:16.466Z,26.30
2019-02-08T08:24:09.257Z,20.50
2019-02-08T08:27:02.921Z,22.93
2019-02-08T08:30:08.933Z,20.97
2019-02-08T08:32:58.050Z,23.23
2019-02-08T08:35:38.698Z,22.80
2019-02-08T08:38:19.345Z,21.43
2019-02-08T08:40:59.937Z,23.00
2019-02-08T08:43:40.526Z,22.87
2019-02-08T08:46:21.503Z,21.77
2019-02-08T08:49:01.858Z,22.63
2019-02-08T08:51:42.533Z,21.23
2019-02-08T08:54:23.201Z,23.73
2019-02-08T08:57:03.898Z,21.80
2019-02-08T08:59:44.864Z,21.03
2019-02-08T09:02:25.498Z,18.83
2019-02-08T09:05:32.799Z,18.13
2019-02-08T09:08:40.033Z,18.83
2019-02-08T09:11:47.294Z,15.73
2019-02-08T09:14:54.742Z,17.67
2019-02-08T09:18:01.986Z,16.63
2019-02-08T09:21:18.642Z,18.53
2019-02-08T09:24:26.053Z,16.77
2019-02-08T09:34:10.966Z,12.10
2019-02-08T09:36:51.865Z,11.73
2019-02-08T09:39:32.629Z,10.05
2019-02-08T09:42:13.520Z,8.35
2019-02-08T09:44:54.767Z,9.28
2019-02-08T09:47:35.366Z,10.55
2019-02-08T09:50:15.794Z,8.63
2019-02-08T09:52:56.348Z,8.50
2019-02-08T09:55:36.965Z,5.10
2019-02-08T09:58:17.426Z,6.15
2019-02-08T10:00:58.714Z,7.20
2019-02-08T10:03:39.088Z,7.40
2019-02-08T10:06:20.189Z,5.92
2019-02-08T10:09:01.405Z,6.80
2019-02-08T10:12:08.701Z,7.10
2019-02-08T10:15:15.945Z,5.80
2019-02-08T10:18:23.197Z,5.15
2019-02-08T10:21:30.448Z,7.83
2019-02-08T10:24:37.694Z,5.47
2019-02-08T10:27:44.945Z,6.90
2019-02-08T10:30:52.182Z,7.58
2019-02-08T10:33:59.459Z,7.60
2019-02-08T10:36:40.502Z,5.70
2019-02-08T10:39:21.415Z,6.95
2019-02-08T10:42:02.511Z,6.92
2019-02-08T10:44:43.184Z,6.05
2019-02-08T10:47:24.092Z,5.53
2019-02-08T10:50:04.690Z,7.17
2019-02-08T10:52:45.424Z,7.17
2019-02-08T10:58:15.317Z,4.42
2019-02-08T11:00:55.945Z,5.55
2019-02-08T11:03:36.838Z,5.03
2019-02-08T11:06:17.457Z,4.42
2019-02-08T11:08:58.115Z,5.95
2019-02-08T11:11:38.814Z,6.58
2019-02-08T11:14:19.719Z,10.65
2019-02-08T11:17:00.415Z,3.85
2019-02-08T11:19:41.177Z,5.08
2019-02-08T11:22:22.391Z,4.75
2019-02-08T11:25:02.969Z,6.75
2019-02-08T11:27:43.962Z,4.78
2019-02-08T11:30:24.341Z,6.10
2019-02-08T11:33:05.086Z,7.12
2019-02-08T11:35:45.824Z,4.33
2019-02-08T11:41:15.777Z,5.72
2019-02-08T11:43:56.294Z,5.17
2019-02-08T11:46:37.358Z,6.90
2019-02-08T11:49:18.093Z,4.70
2019-02-08T11:51:59.236Z,4.22
2019-02-08T11:54:40.283Z,3.27
2019-02-08T11:57:21.677Z,4.03
2019-02-08T12:00:02.957Z,4.85
2019-02-08T12:05:32.827Z,5.35
2019-02-08T12:08:13.491Z,3.37
2019-02-08T12:10:54.054Z,4.20
2019-02-08T12:13:34.873Z,6.13
2019-02-08T12:16:15.425Z,4.33
2019-02-08T12:18:56.520Z,7.27
2019-02-08T12:21:37.244Z,2.33
2019-02-08T12:27:05.055Z,6.63
2019-02-08T12:29:45.772Z,6.70
2019-02-08T12:32:26.164Z,6.40
2019-02-08T12:35:06.641Z,4.13
2019-02-08T12:37:47.564Z,6.67
2019-02-08T12:40:28.533Z,4.47
2019-02-08T12:43:09.562Z,4.75
2019-02-08T12:45:51.267Z,5.67
2019-02-08T12:48:32.573Z,4.95
2019-02-08T12:51:13.209Z,4.50
2019-02-08T12:53:53.776Z,4.58
2019-02-08T12:56:34.317Z,4.22
2019-02-08T12:59:15.307Z,9.18
2019-02-08T13:01:55.804Z,4.70
2019-02-08T13:04:36.830Z,4.53
2019-02-08T13:07:17.242Z,7.08
2019-02-08T13:09:58.009Z,4.15
2019-02-08T13:12:38.667Z,6.55
2019-02-08T13:15:19.430Z,3.33
2019-02-08T13:18:00.477Z,3.65
2019-02-08T13:20:41.014Z,3.95
2019-02-08T13:23:21.638Z,6.47
2019-02-08T13:26:02.626Z,2.98
2019-02-08T13:28:43.372Z,3.60
2019-02-08T13:31:24.349Z,8.33
2019-02-08T13:34:05.014Z,6.30
2019-02-08T13:36:45.669Z,6.92
2019-02-08T13:39:26.421Z,21.30
2019-02-08T13:42:07.416Z,3.30
2019-02-08T13:44:48.354Z,6.58
2019-02-08T13:47:28.942Z,3.17
2019-02-08T13:50:09.576Z,6.12
2019-02-08T13:52:50.224Z,3.33
2019-02-08T13:55:31.433Z,4.12
2019-02-08T13:58:12.070Z,6.22
2019-02-08T14:00:52.550Z,2.65
2019-02-08T14:03:31.781Z,8.23
2019-02-08T14:06:19.922Z,5.90
2019-02-08T14:09:09.168Z,5.65
2019-02-08T14:11:57.288Z,5.87
2019-02-08T14:14:45.366Z,5.40
2019-02-08T14:17:33.517Z,4.50
2019-02-08T14:20:42.598Z,6.90
2019-02-08T14:23:30.761Z,7.50
2019-02-08T14:26:18.817Z,6.77
2019-02-08T14:29:06.976Z,7.07
2019-02-08T14:31:55.122Z,4.83
2019-02-08T14:34:43.847Z,6.20
2019-02-08T14:37:36.265Z,5.47
2019-02-08T14:40:17.177Z,5.13
2019-02-08T14:42:58.104Z,7.63
2019-02-08T14:45:38.803Z,7.63
2019-02-08T14:48:19.555Z,3.60
2019-02-08T14:51:00.195Z,4.13
2019-02-08T14:53:40.834Z,8.20
2019-02-08T14:56:21.427Z,6.00
2019-02-08T14:59:02.675Z,6.17
2019-02-08T15:01:43.782Z,6.07
2019-02-08T15:04:24.721Z,7.70
2019-02-08T15:07:05.619Z,8.50
2019-02-08T15:09:46.250Z,8.47
2019-02-08T15:12:27.258Z,6.63
2019-02-08T15:15:07.681Z,5.43
2019-02-08T15:17:48.372Z,5.10
2019-02-08T15:20:29.169Z,5.90
2019-02-08T15:23:09.854Z,5.37
2019-02-08T15:25:50.462Z,9.83
2019-02-08T15:28:31.511Z,6.40
2019-02-08T15:33:58.254Z,6.03
2019-02-08T15:36:38.982Z,7.93
2019-02-08T15:39:20.000Z,4.20
2019-02-08T15:42:01.403Z,8.50
2019-02-08T15:44:42.253Z,8.83
2019-02-08T15:47:23.265Z,7.37
2019-02-08T15:50:04.539Z,7.80
2019-02-08T15:55:31.629Z,6.40
2019-02-08T15:58:12.635Z,10.33
2019-02-08T16:00:53.790Z,5.60
2019-02-08T16:03:34.385Z,13.27
2019-02-08T16:06:15.268Z,15.63
2019-02-08T16:11:38.065Z,14.30
2019-02-08T16:14:18.892Z,14.43
2019-02-08T16:19:44.577Z,55.53
2019-02-08T16:22:25.706Z,21.60
2019-02-08T16:25:06.817Z,27.47
2019-02-08T16:27:47.512Z,22.50
2019-02-08T16:30:28.337Z,15.47
2019-02-08T16:33:09.278Z,14.73
2019-02-08T16:35:49.911Z,12.33
2019-02-08T16:38:30.959Z,20.97
2019-02-08T16:41:11.820Z,20.20
2019-02-08T16:43:52.557Z,13.53
2019-02-08T16:46:33.191Z,17.77
2019-02-08T16:49:14.033Z,15.63
2019-02-08T16:51:54.942Z,17.67
2019-02-08T16:54:35.649Z,17.73
2019-02-08T16:57:16.407Z,17.07
2019-02-08T16:59:56.911Z,17.60
2019-02-08T17:02:37.722Z,16.50
2019-02-08T17:05:18.393Z,18.53
2019-02-08T17:07:59.418Z,34.87
2019-02-08T17:10:40.038Z,17.90
2019-02-08T17:13:20.837Z,37.90
2019-02-08T17:16:01.514Z,13.13
2019-02-08T17:18:42.477Z,17.30
2019-02-08T17:21:22.998Z,14.20
2019-02-08T17:24:04.074Z,15.33
2019-02-08T17:26:44.905Z,20.07
2019-02-08T17:29:26.094Z,20.40
2019-02-08T17:32:06.619Z,26.80
2019-02-08T17:34:47.304Z,32.37
2019-02-08T17:37:28.069Z,16.43
2019-02-08T17:40:08.877Z,34.23
2019-02-08T17:42:49.625Z,52.17
2019-02-08T17:45:30.812Z,44.33
2019-02-08T17:48:11.611Z,43.63
2019-02-08T17:50:52.882Z,30.13
2019-02-08T17:53:33.332Z,44.23
2019-02-08T17:56:13.737Z,51.67
2019-02-08T17:58:54.387Z,29.47
2019-02-08T18:01:35.089Z,25.17
2019-02-08T18:04:15.684Z,22.13
2019-02-08T18:06:56.408Z,27.03
2019-02-08T18:09:37.286Z,24.03
2019-02-08T18:12:18.135Z,57.90
2019-02-08T18:14:58.809Z,14.20
2019-02-08T18:17:39.521Z,24.67
2019-02-08T18:20:20.373Z,19.50
2019-02-08T18:23:01.633Z,21.10
2019-02-08T18:25:42.262Z,14.80
2019-02-08T18:28:23.182Z,15.33
2019-02-08T18:31:03.921Z,26.23
2019-02-08T18:33:44.811Z,15.07
2019-02-08T18:36:25.717Z,20.60
2019-02-08T18:39:06.822Z,14.00
2019-02-08T18:41:47.221Z,25.57
2019-02-08T18:44:28.059Z,85.13
2019-02-08T18:47:08.621Z,37.27
2019-02-08T18:49:49.232Z,34.20
2019-02-08T18:52:29.857Z,23.60
2019-02-08T18:55:10.185Z,18.83
2019-02-08T18:57:50.957Z,20.50
2019-02-08T19:00:22.668Z,21.03
2019-02-08T19:03:10.814Z,34.73
2019-02-08T19:05:58.942Z,33.00
2019-02-08T19:08:47.325Z,28.83
2019-02-08T19:11:35.470Z,31.03
2019-02-08T19:14:23.849Z,22.93
2019-02-08T19:17:11.982Z,49.33
2019-02-08T19:20:00.058Z,19.63
2019-02-08T19:22:48.745Z,26.17
2019-02-08T19:25:37.818Z,15.63
2019-02-08T19:28:26.755Z,19.00
2019-02-08T19:31:15.169Z,17.27
2019-02-08T19:34:03.625Z,19.97
2019-02-08T19:36:44.939Z,16.53
2019-02-08T19:39:25.818Z,19.97
2019-02-08T19:42:06.430Z,15.17
2019-02-08T19:44:46.900Z,21.20
2019-02-08T19:47:27.541Z,28.87
2019-02-08T19:50:08.061Z,43.50
2019-02-08T19:52:48.978Z,41.07
2019-02-08T19:55:29.681Z,28.27
2019-02-08T20:00:52.960Z,29.90
2019-02-08T20:03:33.906Z,24.23
2019-02-08T20:06:15.273Z,24.93
2019-02-08T20:08:56.686Z,24.57
2019-02-08T20:17:05.261Z,20.43
2019-02-08T20:19:46.141Z,20.97
2019-02-08T20:22:26.830Z,21.30
2019-02-08T20:25:07.681Z,26.33
2019-02-08T20:27:48.410Z,22.17
2019-02-08T20:30:29.485Z,21.30
2019-02-08T20:33:10.150Z,22.10
2019-02-08T20:35:50.953Z,19.30
2019-02-08T20:38:20.411Z,45.20
2019-02-08T20:41:08.747Z,43.97
2019-02-08T20:43:56.797Z,33.13
2019-02-08T20:46:44.934Z,34.00
2019-02-08T20:49:33.014Z,136.27
2019-02-08T20:52:21.145Z,166.53
2019-02-08T20:55:09.402Z,76.60
2019-02-08T20:57:57.525Z,64.40
2019-02-08T21:01:04.870Z,26.17
2019-02-08T21:03:53.316Z,21.70
2019-02-08T21:06:43.094Z,146.23
2019-02-08T21:09:31.413Z,62.93
2019-02-08T21:12:19.537Z,111.17
2019-02-08T21:15:07.698Z,72.20
2019-02-08T21:17:55.858Z,38.20
2019-02-08T21:20:44.353Z,32.57
2019-02-08T21:23:32.479Z,28.57
2019-02-08T21:26:20.608Z,31.53
2019-02-08T21:29:08.742Z,33.67
2019-02-08T21:31:56.931Z,35.80
2019-02-08T21:34:45.044Z,32.97
2019-02-08T21:40:12.406Z,40.33
2019-02-08T21:45:35.181Z,29.13
2019-02-08T21:48:15.805Z,26.93
2019-02-08T21:50:57.816Z,25.77
2019-02-08T21:53:38.321Z,32.33
2019-02-08T21:59:06.422Z,27.20
2019-02-08T22:01:50.685Z,44.57
2019-02-08T22:04:31.141Z,40.30
2019-02-08T22:07:11.686Z,31.53
2019-02-08T22:12:41.830Z,29.23
2019-02-08T22:18:04.555Z,28.37
2019-02-08T22:20:45.066Z,26.70
2019-02-08T22:26:15.354Z,26.93
2019-02-08T22:31:38.225Z,27.27
2019-02-08T22:34:07.237Z,29.20
2019-02-08T22:36:47.552Z,27.37
2019-02-08T22:42:17.181Z,25.80
2019-02-08T22:44:57.589Z,24.23
2019-02-08T22:47:38.748Z,25.63
2019-02-08T22:50:19.446Z,25.20
2019-02-08T22:53:00.144Z,26.80
2019-02-08T22:55:41.112Z,25.10
2019-02-08T22:58:21.798Z,26.07
2019-02-08T23:01:02.321Z,27.03
2019-02-08T23:03:51.843Z,28.10
2019-02-08T23:06:44.863Z,26.80
2019-02-08T23:09:29.840Z,27.50
2019-02-08T23:12:17.977Z,27.57
2019-02-08T23:15:06.481Z,26.90
2019-02-08T23:17:54.883Z,34.03
2019-02-08T23:20:43.004Z,32.07
2019-02-08T23:23:31.149Z,30.57
2019-02-08T23:26:19.282Z,31.17
2019-02-08T23:29:07.446Z,37.33
2019-02-08T23:31:55.625Z,31.30
2019-02-08T23:34:43.685Z,41.60
2019-02-08T23:37:26.093Z,35.10
2019-02-08T23:40:07.041Z,34.20
2019-02-08T23:42:47.633Z,33.03
2019-02-08T23:45:28.380Z,33.87
2019-02-08T23:48:09.498Z,33.37
2019-02-08T23:50:49.905Z,36.73
2019-02-08T23:53:30.941Z,35.80
2019-02-08T23:56:11.969Z,36.03
2019-02-08T23:58:52.489Z,33.40
